sensor_id;sensor_type;location;lat;lon;timestamp;P1;durP1;ratioP1;P2;durP2;ratioP2
73331;SDS011;61560;33.718;73.040;2022-12-18T00:01:17;27.93;;;9.63;;
73331;SDS011;61560;33.718;73.040;2022-12-18T00:03:47;37.03;;;10.35;;
73331;SDS011;61560;33.718;73.040;2022-12-18T00:06:14;20.48;;;9.48;;
73331;SDS011;61560;33.718;73.040;2022-12-18T00:08:45;26.23;;;8.85;;
73331;SDS011;61560;33.718;73.040;2022-12-18T00:11:13;19.92;;;9.10;;
73331;SDS011;61560;33.718;73.040;2022-12-18T00:13:41;20.33;;;8.27;;
73331;SDS011;61560;33.718;73.040;2022-12-18T00:16:10;19.88;;;8.32;;
73331;SDS011;61560;33.718;73.040;2022-12-18T00:18:38;21.75;;;8.07;;
73331;SDS011;61560;33.718;73.040;2022-12-18T00:21:07;14.23;;;7.50;;
73331;SDS011;61560;33.718;73.040;2022-12-18T00:23:35;16.65;;;7.75;;
73331;SDS011;61560;33.718;73.040;2022-12-18T00:26:05;28.42;;;9.45;;
73331;SDS011;61560;33.718;73.040;2022-12-18T00:28:34;18.55;;;7.18;;
73331;SDS011;61560;33.718;73.040;2022-12-18T00:31:05;17.73;;;7.68;;
73331;SDS011;61560;33.718;73.040;2022-12-18T00:33:34;16.25;;;7.65;;
73331;SDS011;61560;33.718;73.040;2022-12-18T00:36:02;16.27;;;7.55;;
73331;SDS011;61560;33.718;73.040;2022-12-18T00:38:31;20.67;;;6.80;;
73331;SDS011;61560;33.718;73.040;2022-12-18T00:40:59;23.23;;;7.97;;
73331;SDS011;61560;33.718;73.040;2022-12-18T00:43:27;23.45;;;9.10;;
73331;SDS011;61560;33.718;73.040;2022-12-18T00:45:53;19.73;;;8.00;;
73331;SDS011;61560;33.718;73.040;2022-12-18T00:48:20;16.83;;;6.82;;
73331;SDS011;61560;33.718;73.040;2022-12-18T00:50:49;15.48;;;7.35;;
73331;SDS011;61560;33.718;73.040;2022-12-18T00:53:16;20.35;;;7.95;;
73331;SDS011;61560;33.718;73.040;2022-12-18T00:55:43;22.92;;;8.48;;
73331;SDS011;61560;33.718;73.040;2022-12-18T00:58:11;20.63;;;7.75;;
73331;SDS011;61560;33.718;73.040;2022-12-18T01:00:39;20.83;;;8.65;;
73331;SDS011;61560;33.718;73.040;2022-12-18T01:03:12;22.10;;;9.00;;
73331;SDS011;61560;33.718;73.040;2022-12-18T01:05:40;24.23;;;8.88;;
73331;SDS011;61560;33.718;73.040;2022-12-18T01:08:08;22.13;;;8.13;;
73331;SDS011;61560;33.718;73.040;2022-12-18T01:10:35;18.85;;;7.18;;
73331;SDS011;61560;33.718;73.040;2022-12-18T01:13:07;16.42;;;8.23;;
73331;SDS011;61560;33.718;73.040;2022-12-18T01:15:36;23.67;;;8.45;;
73331;SDS011;61560;33.718;73.040;2022-12-18T01:18:06;27.63;;;9.48;;
73331;SDS011;61560;33.718;73.040;2022-12-18T01:20:35;22.15;;;9.00;;
73331;SDS011;61560;33.718;73.040;2022-12-18T01:23:04;20.40;;;9.27;;
73331;SDS011;61560;33.718;73.040;2022-12-18T01:25:33;27.30;;;8.75;;
73331;SDS011;61560;33.718;73.040;2022-12-18T01:28:02;25.00;;;9.90;;
73331;SDS011;61560;33.718;73.040;2022-12-18T01:30:31;22.75;;;10.25;;
73331;SDS011;61560;33.718;73.040;2022-12-18T01:32:58;24.33;;;9.30;;
73331;SDS011;61560;33.718;73.040;2022-12-18T01:35:26;16.30;;;7.43;;
73331;SDS011;61560;33.718;73.040;2022-12-18T01:37:55;23.77;;;7.72;;
73331;SDS011;61560;33.718;73.040;2022-12-18T01:40:22;29.88;;;10.25;;
73331;SDS011;61560;33.718;73.040;2022-12-18T01:42:51;25.20;;;9.35;;
73331;SDS011;61560;33.718;73.040;2022-12-18T01:48:00;27.73;;;9.20;;
73331;SDS011;61560;33.718;73.040;2022-12-18T01:55:46;25.55;;;10.02;;
73331;SDS011;61560;33.718;73.040;2022-12-18T01:58:20;32.17;;;10.95;;
73331;SDS011;61560;33.718;73.040;2022-12-18T02:00:58;24.65;;;10.77;;
73331;SDS011;61560;33.718;73.040;2022-12-18T02:03:25;23.00;;;9.55;;
73331;SDS011;61560;33.718;73.040;2022-12-18T02:06:05;33.50;;;11.90;;
73331;SDS011;61560;33.718;73.040;2022-12-18T02:28:14;29.25;;;11.00;;
73331;SDS011;61560;33.718;73.040;2022-12-18T02:30:44;31.70;;;12.18;;
73331;SDS011;61560;33.718;73.040;2022-12-18T02:33:13;30.02;;;11.13;;
73331;SDS011;61560;33.718;73.040;2022-12-18T02:35:42;36.15;;;14.05;;
73331;SDS011;61560;33.718;73.040;2022-12-18T02:38:12;32.47;;;13.40;;
73331;SDS011;61560;33.718;73.040;2022-12-18T02:40:43;51.88;;;18.73;;
73331;SDS011;61560;33.718;73.040;2022-12-18T02:43:16;77.18;;;25.15;;
73331;SDS011;61560;33.718;73.040;2022-12-18T02:45:46;134.35;;;50.85;;
73331;SDS011;61560;33.718;73.040;2022-12-18T02:50:53;110.90;;;40.72;;
73331;SDS011;61560;33.718;73.040;2022-12-18T02:53:39;118.47;;;45.10;;
73331;SDS011;61560;33.718;73.040;2022-12-18T02:56:25;150.20;;;54.78;;
73331;SDS011;61560;33.718;73.040;2022-12-18T03:04:20;91.18;;;34.78;;
73331;SDS011;61560;33.718;73.040;2022-12-18T03:07:06;74.45;;;26.83;;
73331;SDS011;61560;33.718;73.040;2022-12-18T03:09:41;68.68;;;24.42;;
73331;SDS011;61560;33.718;73.040;2022-12-18T03:12:15;64.63;;;26.50;;
73331;SDS011;61560;33.718;73.040;2022-12-18T03:17:51;48.83;;;19.25;;
73331;SDS011;61560;33.718;73.040;2022-12-18T03:20:30;47.92;;;18.75;;
73331;SDS011;61560;33.718;73.040;2022-12-18T03:23:02;44.20;;;18.35;;
73331;SDS011;61560;33.718;73.040;2022-12-18T03:25:35;51.50;;;18.45;;
73331;SDS011;61560;33.718;73.040;2022-12-18T03:28:07;45.22;;;19.63;;
73331;SDS011;61560;33.718;73.040;2022-12-18T03:30:49;43.72;;;18.42;;
73331;SDS011;61560;33.718;73.040;2022-12-18T03:33:31;47.45;;;20.25;;
73331;SDS011;61560;33.718;73.040;2022-12-18T03:36:06;39.63;;;17.08;;
73331;SDS011;61560;33.718;73.040;2022-12-18T03:38:33;53.83;;;20.00;;
73331;SDS011;61560;33.718;73.040;2022-12-18T03:41:03;60.15;;;19.95;;
73331;SDS011;61560;33.718;73.040;2022-12-18T03:46:31;53.72;;;19.83;;
73331;SDS011;61560;33.718;73.040;2022-12-18T03:49:10;47.97;;;20.20;;
73331;SDS011;61560;33.718;73.040;2022-12-18T03:52:07;52.42;;;22.13;;
73331;SDS011;61560;33.718;73.040;2022-12-18T03:54:40;56.17;;;22.63;;
73331;SDS011;61560;33.718;73.040;2022-12-18T03:57:31;46.97;;;20.05;;
73331;SDS011;61560;33.718;73.040;2022-12-18T04:00:05;59.38;;;21.20;;
73331;SDS011;61560;33.718;73.040;2022-12-18T04:03:03;52.50;;;20.25;;
73331;SDS011;61560;33.718;73.040;2022-12-18T04:05:39;62.05;;;22.15;;
73331;SDS011;61560;33.718;73.040;2022-12-18T04:08:08;59.80;;;22.90;;
73331;SDS011;61560;33.718;73.040;2022-12-18T04:10:39;53.65;;;22.52;;
73331;SDS011;61560;33.718;73.040;2022-12-18T04:13:08;61.47;;;20.77;;
73331;SDS011;61560;33.718;73.040;2022-12-18T04:15:35;55.60;;;21.27;;
73331;SDS011;61560;33.718;73.040;2022-12-18T04:18:07;50.63;;;20.48;;
73331;SDS011;61560;33.718;73.040;2022-12-18T04:20:40;51.33;;;20.15;;
73331;SDS011;61560;33.718;73.040;2022-12-18T04:23:07;49.28;;;20.55;;
73331;SDS011;61560;33.718;73.040;2022-12-18T04:25:34;46.05;;;20.02;;
73331;SDS011;61560;33.718;73.040;2022-12-18T04:28:07;56.50;;;21.05;;
73331;SDS011;61560;33.718;73.040;2022-12-18T04:30:37;49.05;;;21.10;;
73331;SDS011;61560;33.718;73.040;2022-12-18T04:33:08;48.88;;;18.10;;
73331;SDS011;61560;33.718;73.040;2022-12-18T04:35:36;48.72;;;19.33;;
73331;SDS011;61560;33.718;73.040;2022-12-18T04:38:03;46.10;;;19.10;;
73331;SDS011;61560;33.718;73.040;2022-12-18T04:40:36;53.92;;;21.02;;
73331;SDS011;61560;33.718;73.040;2022-12-18T04:43:10;49.17;;;20.83;;
73331;SDS011;61560;33.718;73.040;2022-12-18T04:45:37;64.75;;;20.55;;
73331;SDS011;61560;33.718;73.040;2022-12-18T04:48:04;62.10;;;21.02;;
73331;SDS011;61560;33.718;73.040;2022-12-18T04:50:31;65.45;;;21.60;;
73331;SDS011;61560;33.718;73.040;2022-12-18T04:52:57;55.10;;;21.95;;
73331;SDS011;61560;33.718;73.040;2022-12-18T04:55:24;56.88;;;21.83;;
73331;SDS011;61560;33.718;73.040;2022-12-18T04:57:51;59.17;;;21.63;;
73331;SDS011;61560;33.718;73.040;2022-12-18T05:00:17;56.00;;;21.92;;
73331;SDS011;61560;33.718;73.040;2022-12-18T05:02:44;64.65;;;24.27;;
73331;SDS011;61560;33.718;73.040;2022-12-18T05:05:11;53.88;;;21.52;;
73331;SDS011;61560;33.718;73.040;2022-12-18T05:07:38;67.20;;;23.30;;
73331;SDS011;61560;33.718;73.040;2022-12-18T05:10:09;60.15;;;22.95;;
73331;SDS011;61560;33.718;73.040;2022-12-18T05:12:35;63.42;;;23.60;;
73331;SDS011;61560;33.718;73.040;2022-12-18T05:15:21;63.45;;;25.50;;
73331;SDS011;61560;33.718;73.040;2022-12-18T05:17:48;62.35;;;23.70;;
73331;SDS011;61560;33.718;73.040;2022-12-18T05:20:15;63.50;;;24.17;;
73331;SDS011;61560;33.718;73.040;2022-12-18T05:22:41;69.45;;;27.33;;
73331;SDS011;61560;33.718;73.040;2022-12-18T05:25:08;67.50;;;24.77;;
73331;SDS011;61560;33.718;73.040;2022-12-18T05:27:34;57.85;;;25.23;;
73331;SDS011;61560;33.718;73.040;2022-12-18T05:30:01;61.78;;;25.17;;
73331;SDS011;61560;33.718;73.040;2022-12-18T05:32:28;65.65;;;23.33;;
73331;SDS011;61560;33.718;73.040;2022-12-18T05:34:55;69.63;;;26.73;;
73331;SDS011;61560;33.718;73.040;2022-12-18T05:37:24;66.75;;;26.05;;
73331;SDS011;61560;33.718;73.040;2022-12-18T05:39:50;71.53;;;26.98;;
73331;SDS011;61560;33.718;73.040;2022-12-18T05:42:16;63.67;;;25.40;;
73331;SDS011;61560;33.718;73.040;2022-12-18T05:44:43;69.15;;;26.40;;
73331;SDS011;61560;33.718;73.040;2022-12-18T05:47:10;61.58;;;25.30;;
73331;SDS011;61560;33.718;73.040;2022-12-18T05:49:37;60.35;;;23.85;;
73331;SDS011;61560;33.718;73.040;2022-12-18T05:52:03;66.38;;;24.83;;
73331;SDS011;61560;33.718;73.040;2022-12-18T05:54:30;56.83;;;24.08;;
73331;SDS011;61560;33.718;73.040;2022-12-18T05:56:58;73.00;;;26.25;;
73331;SDS011;61560;33.718;73.040;2022-12-18T05:59:25;77.72;;;30.13;;
73331;SDS011;61560;33.718;73.040;2022-12-18T06:01:52;76.05;;;27.83;;
73331;SDS011;61560;33.718;73.040;2022-12-18T06:04:20;66.63;;;25.85;;
73331;SDS011;61560;33.718;73.040;2022-12-18T06:06:46;81.38;;;27.65;;
73331;SDS011;61560;33.718;73.040;2022-12-18T06:09:13;66.72;;;26.42;;
73331;SDS011;61560;33.718;73.040;2022-12-18T06:11:39;70.95;;;28.42;;
73331;SDS011;61560;33.718;73.040;2022-12-18T06:14:06;60.33;;;23.27;;
73331;SDS011;61560;33.718;73.040;2022-12-18T06:16:33;81.85;;;27.80;;
73331;SDS011;61560;33.718;73.040;2022-12-18T06:19:01;76.10;;;28.95;;
73331;SDS011;61560;33.718;73.040;2022-12-18T06:21:29;74.18;;;28.15;;
73331;SDS011;61560;33.718;73.040;2022-12-18T06:23:56;82.05;;;30.58;;
73331;SDS011;61560;33.718;73.040;2022-12-18T06:26:23;78.85;;;29.38;;
73331;SDS011;61560;33.718;73.040;2022-12-18T06:28:53;76.75;;;29.30;;
73331;SDS011;61560;33.718;73.040;2022-12-18T06:31:19;78.68;;;30.20;;
73331;SDS011;61560;33.718;73.040;2022-12-18T06:33:46;79.63;;;33.13;;
73331;SDS011;61560;33.718;73.040;2022-12-18T06:36:13;79.80;;;32.28;;
73331;SDS011;61560;33.718;73.040;2022-12-18T06:38:41;92.18;;;36.58;;
73331;SDS011;61560;33.718;73.040;2022-12-18T06:41:13;94.28;;;37.60;;
73331;SDS011;61560;33.718;73.040;2022-12-18T06:43:42;85.97;;;35.58;;
73331;SDS011;61560;33.718;73.040;2022-12-18T06:46:09;86.88;;;34.78;;
73331;SDS011;61560;33.718;73.040;2022-12-18T06:48:36;81.78;;;34.15;;
73331;SDS011;61560;33.718;73.040;2022-12-18T06:51:06;74.45;;;30.35;;
73331;SDS011;61560;33.718;73.040;2022-12-18T06:53:33;88.30;;;33.17;;
73331;SDS011;61560;33.718;73.040;2022-12-18T06:56:00;81.00;;;33.50;;
73331;SDS011;61560;33.718;73.040;2022-12-18T06:58:28;74.53;;;31.48;;
73331;SDS011;61560;33.718;73.040;2022-12-18T07:01:04;75.03;;;31.33;;
73331;SDS011;61560;33.718;73.040;2022-12-18T07:03:32;71.63;;;28.52;;
73331;SDS011;61560;33.718;73.040;2022-12-18T07:05:59;78.68;;;29.67;;
73331;SDS011;61560;33.718;73.040;2022-12-18T07:08:30;70.60;;;28.92;;
73331;SDS011;61560;33.718;73.040;2022-12-18T07:11:02;77.22;;;30.95;;
73331;SDS011;61560;33.718;73.040;2022-12-18T07:13:31;79.93;;;32.15;;
73331;SDS011;61560;33.718;73.040;2022-12-18T07:16:08;69.35;;;31.17;;
73331;SDS011;61560;33.718;73.040;2022-12-18T07:18:42;73.75;;;31.20;;
73331;SDS011;61560;33.718;73.040;2022-12-18T07:21:10;86.53;;;31.55;;
73331;SDS011;61560;33.718;73.040;2022-12-18T07:23:39;73.85;;;29.40;;
73331;SDS011;61560;33.718;73.040;2022-12-18T07:26:08;76.00;;;30.63;;
73331;SDS011;61560;33.718;73.040;2022-12-18T07:28:40;74.47;;;28.52;;
73331;SDS011;61560;33.718;73.040;2022-12-18T07:31:11;76.13;;;30.65;;
73331;SDS011;61560;33.718;73.040;2022-12-18T07:33:46;74.32;;;28.77;;
73331;SDS011;61560;33.718;73.040;2022-12-18T07:36:14;68.50;;;27.73;;
73331;SDS011;61560;33.718;73.040;2022-12-18T07:38:42;69.80;;;28.25;;
73331;SDS011;61560;33.718;73.040;2022-12-18T07:41:09;71.65;;;28.40;;
73331;SDS011;61560;33.718;73.040;2022-12-18T07:43:38;67.32;;;26.65;;
73331;SDS011;61560;33.718;73.040;2022-12-18T07:46:05;66.20;;;27.73;;
73331;SDS011;61560;33.718;73.040;2022-12-18T07:48:32;70.60;;;26.73;;
73331;SDS011;61560;33.718;73.040;2022-12-18T07:50:59;64.07;;;25.30;;
73331;SDS011;61560;33.718;73.040;2022-12-18T07:53:27;62.63;;;25.35;;
73331;SDS011;61560;33.718;73.040;2022-12-18T07:55:57;61.55;;;24.45;;
73331;SDS011;61560;33.718;73.040;2022-12-18T07:58:24;73.33;;;24.73;;
73331;SDS011;61560;33.718;73.040;2022-12-18T08:00:51;65.40;;;26.23;;
73331;SDS011;61560;33.718;73.040;2022-12-18T08:03:19;60.95;;;25.40;;
73331;SDS011;61560;33.718;73.040;2022-12-18T08:05:49;57.53;;;23.80;;
73331;SDS011;61560;33.718;73.040;2022-12-18T08:08:16;63.75;;;25.20;;
73331;SDS011;61560;33.718;73.040;2022-12-18T08:10:42;60.65;;;24.92;;
73331;SDS011;61560;33.718;73.040;2022-12-18T08:13:09;58.70;;;24.58;;
73331;SDS011;61560;33.718;73.040;2022-12-18T08:15:35;58.58;;;25.40;;
73331;SDS011;61560;33.718;73.040;2022-12-18T08:18:03;59.63;;;24.10;;
73331;SDS011;61560;33.718;73.040;2022-12-18T08:20:29;56.38;;;24.27;;
73331;SDS011;61560;33.718;73.040;2022-12-18T08:22:56;63.95;;;25.15;;
73331;SDS011;61560;33.718;73.040;2022-12-18T08:25:23;54.05;;;22.90;;
73331;SDS011;61560;33.718;73.040;2022-12-18T08:27:50;63.22;;;24.35;;
73331;SDS011;61560;33.718;73.040;2022-12-18T08:30:16;55.22;;;23.55;;
73331;SDS011;61560;33.718;73.040;2022-12-18T08:32:43;56.22;;;21.15;;
73331;SDS011;61560;33.718;73.040;2022-12-18T08:35:09;57.10;;;22.77;;
73331;SDS011;61560;33.718;73.040;2022-12-18T08:37:37;71.30;;;28.35;;
73331;SDS011;61560;33.718;73.040;2022-12-18T08:40:04;66.07;;;26.17;;
73331;SDS011;61560;33.718;73.040;2022-12-18T08:42:36;74.13;;;27.90;;
73331;SDS011;61560;33.718;73.040;2022-12-18T08:45:21;72.32;;;29.20;;
73331;SDS011;61560;33.718;73.040;2022-12-18T08:47:47;72.47;;;29.25;;
73331;SDS011;61560;33.718;73.040;2022-12-18T08:50:14;70.03;;;30.42;;
73331;SDS011;61560;33.718;73.040;2022-12-18T08:52:40;79.85;;;31.00;;
73331;SDS011;61560;33.718;73.040;2022-12-18T08:55:08;75.63;;;29.60;;
73331;SDS011;61560;33.718;73.040;2022-12-18T08:57:35;75.38;;;30.83;;
73331;SDS011;61560;33.718;73.040;2022-12-18T09:00:03;69.20;;;28.48;;
73331;SDS011;61560;33.718;73.040;2022-12-18T09:02:30;126.30;;;54.85;;
73331;SDS011;61560;33.718;73.040;2022-12-18T09:04:56;106.07;;;47.92;;
73331;SDS011;61560;33.718;73.040;2022-12-18T09:07:23;86.15;;;38.47;;
73331;SDS011;61560;33.718;73.040;2022-12-18T09:09:50;80.82;;;33.30;;
73331;SDS011;61560;33.718;73.040;2022-12-18T09:12:16;76.60;;;31.67;;
73331;SDS011;61560;33.718;73.040;2022-12-18T09:14:42;80.32;;;32.47;;
73331;SDS011;61560;33.718;73.040;2022-12-18T09:17:09;67.05;;;28.55;;
73331;SDS011;61560;33.718;73.040;2022-12-18T09:19:36;74.47;;;29.77;;
73331;SDS011;61560;33.718;73.040;2022-12-18T09:22:02;76.00;;;29.63;;
73331;SDS011;61560;33.718;73.040;2022-12-18T09:24:31;84.40;;;31.30;;
73331;SDS011;61560;33.718;73.040;2022-12-18T09:26:58;74.80;;;29.85;;
73331;SDS011;61560;33.718;73.040;2022-12-18T09:29:27;80.10;;;29.75;;
73331;SDS011;61560;33.718;73.040;2022-12-18T09:31:54;72.75;;;31.45;;
73331;SDS011;61560;33.718;73.040;2022-12-18T09:34:26;66.50;;;28.85;;
73331;SDS011;61560;33.718;73.040;2022-12-18T09:36:53;80.93;;;28.50;;
73331;SDS011;61560;33.718;73.040;2022-12-18T09:39:19;73.28;;;29.20;;
73331;SDS011;61560;33.718;73.040;2022-12-18T09:44:26;60.88;;;27.23;;
73331;SDS011;61560;33.718;73.040;2022-12-18T09:49:56;76.07;;;29.55;;
73331;SDS011;61560;33.718;73.040;2022-12-18T09:52:41;74.28;;;29.70;;
73331;SDS011;61560;33.718;73.040;2022-12-18T09:55:32;74.57;;;30.70;;
73331;SDS011;61560;33.718;73.040;2022-12-18T10:00:35;71.13;;;28.92;;
73331;SDS011;61560;33.718;73.040;2022-12-18T10:03:08;74.43;;;29.02;;
73331;SDS011;61560;33.718;73.040;2022-12-18T10:08:43;70.80;;;28.05;;
73331;SDS011;61560;33.718;73.040;2022-12-18T10:17:07;71.43;;;27.95;;
73331;SDS011;61560;33.718;73.040;2022-12-18T10:19:54;73.90;;;28.35;;
73331;SDS011;61560;33.718;73.040;2022-12-18T10:22:29;70.63;;;28.17;;
73331;SDS011;61560;33.718;73.040;2022-12-18T10:27:54;55.88;;;23.95;;
73331;SDS011;61560;33.718;73.040;2022-12-18T10:30:24;70.82;;;26.65;;
73331;SDS011;61560;33.718;73.040;2022-12-18T10:32:52;68.05;;;25.75;;
73331;SDS011;61560;33.718;73.040;2022-12-18T10:35:23;64.32;;;25.90;;
73331;SDS011;61560;33.718;73.040;2022-12-18T10:37:59;58.45;;;24.95;;
73331;SDS011;61560;33.718;73.040;2022-12-18T10:40:28;67.65;;;25.25;;
73331;SDS011;61560;33.718;73.040;2022-12-18T10:43:12;63.00;;;25.17;;
73331;SDS011;61560;33.718;73.040;2022-12-18T10:45:43;60.63;;;24.10;;
73331;SDS011;61560;33.718;73.040;2022-12-18T10:51:24;56.60;;;23.10;;
73331;SDS011;61560;33.718;73.040;2022-12-18T10:53:57;56.90;;;21.70;;
73331;SDS011;61560;33.718;73.040;2022-12-18T10:56:27;59.22;;;23.67;;
73331;SDS011;61560;33.718;73.040;2022-12-18T10:59:03;65.53;;;24.48;;
73331;SDS011;61560;33.718;73.040;2022-12-18T11:04:29;64.05;;;22.73;;
73331;SDS011;61560;33.718;73.040;2022-12-18T11:07:04;56.45;;;21.90;;
73331;SDS011;61560;33.718;73.040;2022-12-18T11:09:37;61.83;;;23.38;;
73331;SDS011;61560;33.718;73.040;2022-12-18T11:12:14;60.75;;;24.40;;
73331;SDS011;61560;33.718;73.040;2022-12-18T11:17:36;71.75;;;23.83;;
73331;SDS011;61560;33.718;73.040;2022-12-18T11:22:54;50.38;;;20.67;;
73331;SDS011;61560;33.718;73.040;2022-12-18T11:25:24;52.60;;;20.38;;
73331;SDS011;61560;33.718;73.040;2022-12-18T11:27:51;47.05;;;19.70;;
73331;SDS011;61560;33.718;73.040;2022-12-18T11:32:56;54.55;;;20.42;;
73331;SDS011;61560;33.718;73.040;2022-12-18T11:38:23;45.42;;;19.25;;
73331;SDS011;61560;33.718;73.040;2022-12-18T11:47:47;54.35;;;21.42;;
73331;SDS011;61560;33.718;73.040;2022-12-18T11:50:56;59.38;;;23.42;;
73331;SDS011;61560;33.718;73.040;2022-12-18T11:53:27;57.65;;;23.27;;
73331;SDS011;61560;33.718;73.040;2022-12-18T11:56:00;69.80;;;24.83;;
73331;SDS011;61560;33.718;73.040;2022-12-18T11:59:08;60.20;;;23.83;;
73331;SDS011;61560;33.718;73.040;2022-12-18T12:02:09;68.90;;;24.88;;
73331;SDS011;61560;33.718;73.040;2022-12-18T12:13:21;64.28;;;25.27;;
73331;SDS011;61560;33.718;73.040;2022-12-18T12:29:38;57.30;;;22.20;;
73331;SDS011;61560;33.718;73.040;2022-12-18T12:38:21;62.53;;;25.17;;
73331;SDS011;61560;33.718;73.040;2022-12-18T12:41:14;73.30;;;26.02;;
73331;SDS011;61560;33.718;73.040;2022-12-18T12:44:08;69.78;;;25.85;;
73331;SDS011;61560;33.718;73.040;2022-12-18T12:46:46;67.90;;;25.73;;
73331;SDS011;61560;33.718;73.040;2022-12-18T12:49:16;60.20;;;25.30;;
73331;SDS011;61560;33.718;73.040;2022-12-18T12:52:05;57.55;;;24.40;;
73331;SDS011;61560;33.718;73.040;2022-12-18T12:54:38;71.07;;;24.02;;
73331;SDS011;61560;33.718;73.040;2022-12-18T12:57:09;58.60;;;22.63;;
73331;SDS011;61560;33.718;73.040;2022-12-18T12:59:55;52.95;;;22.70;;
73331;SDS011;61560;33.718;73.040;2022-12-18T13:08:23;55.10;;;22.83;;
73331;SDS011;61560;33.718;73.040;2022-12-18T13:10:58;62.63;;;24.13;;
73331;SDS011;61560;33.718;73.040;2022-12-18T13:13:52;55.63;;;21.52;;
73331;SDS011;61560;33.718;73.040;2022-12-18T13:16:24;59.47;;;23.50;;
73331;SDS011;61560;33.718;73.040;2022-12-18T13:18:58;56.95;;;22.85;;
73331;SDS011;61560;33.718;73.040;2022-12-18T13:21:28;69.53;;;24.77;;
73331;SDS011;61560;33.718;73.040;2022-12-18T13:26:59;58.88;;;22.58;;
73331;SDS011;61560;33.718;73.040;2022-12-18T13:29:45;64.43;;;25.88;;
73331;SDS011;61560;33.718;73.040;2022-12-18T13:32:22;92.47;;;29.83;;
73331;SDS011;61560;33.718;73.040;2022-12-18T13:37:44;72.50;;;27.90;;
73331;SDS011;61560;33.718;73.040;2022-12-18T13:48:22;68.72;;;25.77;;
73331;SDS011;61560;33.718;73.040;2022-12-18T13:51:08;65.38;;;25.60;;
73331;SDS011;61560;33.718;73.040;2022-12-18T13:53:39;62.97;;;24.40;;
73331;SDS011;61560;33.718;73.040;2022-12-18T13:56:32;62.83;;;25.55;;
73331;SDS011;61560;33.718;73.040;2022-12-18T13:59:04;62.92;;;23.83;;
73331;SDS011;61560;33.718;73.040;2022-12-18T14:07:06;67.32;;;24.48;;
73331;SDS011;61560;33.718;73.040;2022-12-18T14:09:57;65.60;;;23.90;;
73331;SDS011;61560;33.718;73.040;2022-12-18T14:12:28;69.90;;;25.60;;
73331;SDS011;61560;33.718;73.040;2022-12-18T14:15:21;58.30;;;22.65;;
73331;SDS011;61560;33.718;73.040;2022-12-18T14:18:01;56.92;;;22.75;;
73331;SDS011;61560;33.718;73.040;2022-12-18T14:20:35;60.95;;;24.52;;
73331;SDS011;61560;33.718;73.040;2022-12-18T14:23:02;64.07;;;23.92;;
73331;SDS011;61560;33.718;73.040;2022-12-18T14:25:32;72.78;;;23.60;;
73331;SDS011;61560;33.718;73.040;2022-12-18T14:30:40;59.72;;;22.75;;
73331;SDS011;61560;33.718;73.040;2022-12-18T14:35:59;74.25;;;24.58;;
73331;SDS011;61560;33.718;73.040;2022-12-18T14:41:05;61.85;;;25.40;;
73331;SDS011;61560;33.718;73.040;2022-12-18T14:43:38;59.70;;;25.13;;
73331;SDS011;61560;33.718;73.040;2022-12-18T14:46:27;50.97;;;20.10;;
73331;SDS011;61560;33.718;73.040;2022-12-18T14:51:33;68.47;;;24.87;;
73331;SDS011;61560;33.718;73.040;2022-12-18T14:54:03;72.95;;;29.75;;
73331;SDS011;61560;33.718;73.040;2022-12-18T14:56:37;93.13;;;34.70;;
73331;SDS011;61560;33.718;73.040;2022-12-18T14:59:37;94.32;;;32.97;;
73331;SDS011;61560;33.718;73.040;2022-12-18T15:05:04;90.20;;;32.88;;
73331;SDS011;61560;33.718;73.040;2022-12-18T15:07:43;91.80;;;33.03;;
73331;SDS011;61560;33.718;73.040;2022-12-18T15:10:13;97.47;;;34.22;;
73331;SDS011;61560;33.718;73.040;2022-12-18T15:12:43;76.55;;;30.00;;
73331;SDS011;61560;33.718;73.040;2022-12-18T15:23:20;71.75;;;25.98;;
73331;SDS011;61560;33.718;73.040;2022-12-18T15:25:58;69.35;;;27.77;;
73331;SDS011;61560;33.718;73.040;2022-12-18T15:34:00;71.32;;;25.45;;
73331;SDS011;61560;33.718;73.040;2022-12-18T15:36:39;62.13;;;23.95;;
73331;SDS011;61560;33.718;73.040;2022-12-18T15:39:06;59.00;;;23.77;;
73331;SDS011;61560;33.718;73.040;2022-12-18T15:41:37;68.32;;;24.05;;
73331;SDS011;61560;33.718;73.040;2022-12-18T15:44:14;72.35;;;25.63;;
73331;SDS011;61560;33.718;73.040;2022-12-18T15:46:48;58.83;;;24.20;;
73331;SDS011;61560;33.718;73.040;2022-12-18T15:49:15;56.30;;;21.73;;
73331;SDS011;61560;33.718;73.040;2022-12-18T15:51:41;55.47;;;22.60;;
73331;SDS011;61560;33.718;73.040;2022-12-18T15:54:12;56.13;;;21.52;;
73331;SDS011;61560;33.718;73.040;2022-12-18T15:56:42;53.83;;;22.88;;
73331;SDS011;61560;33.718;73.040;2022-12-18T15:59:27;60.40;;;23.48;;
73331;SDS011;61560;33.718;73.040;2022-12-18T16:01:55;60.40;;;24.92;;
73331;SDS011;61560;33.718;73.040;2022-12-18T16:04:22;74.68;;;25.83;;
73331;SDS011;61560;33.718;73.040;2022-12-18T16:06:50;63.45;;;23.60;;
73331;SDS011;61560;33.718;73.040;2022-12-18T16:09:17;60.92;;;22.63;;
73331;SDS011;61560;33.718;73.040;2022-12-18T16:11:44;63.58;;;22.88;;
73331;SDS011;61560;33.718;73.040;2022-12-18T16:14:20;60.70;;;23.30;;
73331;SDS011;61560;33.718;73.040;2022-12-18T16:16:50;60.05;;;21.98;;
73331;SDS011;61560;33.718;73.040;2022-12-18T16:19:18;58.20;;;21.15;;
73331;SDS011;61560;33.718;73.040;2022-12-18T16:21:47;59.72;;;21.73;;
73331;SDS011;61560;33.718;73.040;2022-12-18T16:24:16;64.90;;;21.90;;
73331;SDS011;61560;33.718;73.040;2022-12-18T16:26:52;53.72;;;21.20;;
73331;SDS011;61560;33.718;73.040;2022-12-18T16:29:25;67.07;;;22.15;;
73331;SDS011;61560;33.718;73.040;2022-12-18T16:31:54;56.55;;;21.42;;
73331;SDS011;61560;33.718;73.040;2022-12-18T16:34:25;57.38;;;21.00;;
73331;SDS011;61560;33.718;73.040;2022-12-18T16:36:55;58.40;;;22.95;;
73331;SDS011;61560;33.718;73.040;2022-12-18T16:39:25;62.00;;;24.05;;
73331;SDS011;61560;33.718;73.040;2022-12-18T16:41:56;55.03;;;21.58;;
73331;SDS011;61560;33.718;73.040;2022-12-18T16:44:22;62.03;;;24.50;;
73331;SDS011;61560;33.718;73.040;2022-12-18T16:46:50;53.97;;;22.10;;
73331;SDS011;61560;33.718;73.040;2022-12-18T16:49:17;58.88;;;21.30;;
73331;SDS011;61560;33.718;73.040;2022-12-18T16:51:45;67.88;;;22.58;;
73331;SDS011;61560;33.718;73.040;2022-12-18T16:54:12;48.97;;;20.23;;
73331;SDS011;61560;33.718;73.040;2022-12-18T16:56:39;63.70;;;22.92;;
73331;SDS011;61560;33.718;73.040;2022-12-18T16:59:09;51.03;;;20.15;;
73331;SDS011;61560;33.718;73.040;2022-12-18T17:01:38;64.47;;;22.05;;
73331;SDS011;61560;33.718;73.040;2022-12-18T17:04:06;60.80;;;21.45;;
73331;SDS011;61560;33.718;73.040;2022-12-18T17:06:35;47.72;;;19.55;;
73331;SDS011;61560;33.718;73.040;2022-12-18T17:11:35;52.53;;;18.13;;
73331;SDS011;61560;33.718;73.040;2022-12-18T17:14:08;51.70;;;21.45;;
73331;SDS011;61560;33.718;73.040;2022-12-18T17:16:38;63.90;;;21.67;;
73331;SDS011;61560;33.718;73.040;2022-12-18T17:19:04;60.95;;;23.52;;
73331;SDS011;61560;33.718;73.040;2022-12-18T17:21:31;52.75;;;20.35;;
73331;SDS011;61560;33.718;73.040;2022-12-18T17:24:01;59.13;;;22.27;;